Time;durP1;ratioP1;P1;durP2;ratioP2;P2;SDS_P1;SDS_P2;PMS_P1;PMS_P2;Temp;Humidity;BMP_temperature;BMP_pressure;BME280_temperature;BME280_humidity;BME280_pressure;Samples;Min_cycle;Max_cycle;Signal;HPM_P1;HPM_P2
2022/02/02 00:01:26;;;;;;;4.22;3.92;;;;;;;4.12;100.00;95886.44;5044803;28;20064;-59
2022/02/02 00:03:58;;;;;;;4.00;3.80;;;;;;;4.07;100.00;95892.03;5041662;28;20069;-59
2022/02/02 00:06:32;;;;;;;3.70;3.50;;;;;;;4.04;100.00;95887.84;5044950;28;20069;-58
2022/02/02 00:09:05;;;;;;;3.70;3.50;;;;;;;3.99;100.00;95895.22;5040882;28;20064;-60
2022/02/02 00:12:09;;;;;;;3.50;3.30;;;;;;;3.99;100.00;95884.78;5047424;28;20096;-60
2022/02/02 00:14:48;;;;;;;3.75;3.55;;;;;;;3.93;100.00;95889.66;5036755;28;20297;-58
2022/02/02 00:17:29;;;;;;;4.10;3.80;;;;;;;3.87;100.00;95885.72;5044547;28;20081;-59
2022/02/02 00:20:11;;;;;;;4.30;4.00;;;;;;;3.78;100.00;95889.03;5042343;28;20056;-57
2022/02/02 00:22:42;;;;;;;4.07;3.85;;;;;;;3.69;100.00;95885.34;5040083;28;20076;-57
2022/02/02 00:25:15;;;;;;;3.75;3.55;;;;;;;3.78;100.00;95892.44;5038500;28;20496;-60
2022/02/02 00:27:47;;;;;;;3.70;3.50;;;;;;;3.94;100.00;95896.50;5054560;28;20044;-58
2022/02/02 00:30:19;;;;;;;4.30;4.00;;;;;;;3.94;100.00;95888.69;5063022;28;20068;-60
2022/02/02 00:33:07;;;;;;;4.20;3.90;;;;;;;3.87;100.00;95885.72;5060666;28;20087;-59
2022/02/02 00:35:54;;;;;;;4.20;3.90;;;;;;;4.05;100.00;95892.13;5058110;28;20079;-58
2022/02/02 00:38:22;;;;;;;4.07;3.80;;;;;;;4.14;100.00;95895.81;5066193;28;20522;-59
2022/02/02 00:40:51;;;;;;;3.95;3.60;;;;;;;4.06;100.00;95906.03;5060845;28;20060;-57
2022/02/02 00:43:19;;;;;;;4.60;4.05;;;;;;;4.03;100.00;95888.81;5061122;28;20068;-58
2022/02/02 00:46:08;;;;;;;3.90;3.60;;;;;;;4.26;100.00;95854.88;5059525;28;20075;-59
2022/02/02 00:48:36;;;;;;;4.90;4.07;;;;;;;4.09;100.00;95837.09;5060697;28;20110;-59
2022/02/02 00:51:07;;;;;;;5.43;4.10;;;;;;;4.09;100.00;95814.44;5063583;28;20060;-58
2022/02/02 00:53:35;;;;;;;4.10;3.80;;;;;;;4.24;100.00;95851.56;5066175;28;20080;-60
2022/02/02 00:56:04;;;;;;;3.78;3.58;;;;;;;4.17;100.00;95843.38;5060168;28;21306;-59
2022/02/02 00:58:33;;;;;;;4.50;4.03;;;;;;;4.22;100.00;95851.66;5063925;28;20558;-60
2022/02/02 01:01:01;;;;;;;4.18;3.88;;;;;;;4.34;100.00;95857.72;5062211;28;20075;-59
2022/02/02 01:03:31;;;;;;;4.40;4.10;;;;;;;4.29;100.00;95831.13;5061294;28;20056;-59
2022/02/02 01:06:01;;;;;;;4.38;4.07;;;;;;;4.25;100.00;95816.69;5064588;28;20070;-60
2022/02/02 01:11:43;;;;;;;3.60;3.40;;;;;;;4.48;100.00;95831.34;5062207;28;20492;-62
2022/02/02 01:19:36;;;;;;;4.50;4.10;;;;;;;4.32;100.00;95854.38;5043320;28;20084;-59
2022/02/02 01:22:16;;;;;;;4.07;3.78;;;;;;;4.33;100.00;95857.81;5057930;28;20072;-61
2022/02/02 01:27:50;;;;;;;4.40;4.10;;;;;;;4.27;100.00;95838.28;5063662;28;20068;-61
2022/02/02 01:30:19;;;;;;;3.90;3.60;;;;;;;4.45;100.00;95854.25;5063345;28;20068;-60
2022/02/02 01:32:47;;;;;;;4.20;3.90;;;;;;;4.35;100.00;95843.72;5063622;28;20079;-59
2022/02/02 01:35:17;;;;;;;4.18;3.88;;;;;;;4.34;100.00;95852.50;5065589;28;20068;-60
2022/02/02 01:37:47;;;;;;;4.10;3.80;;;;;;;4.51;100.00;95841.53;5057798;28;20068;-60
2022/02/02 01:40:24;;;;;;;4.50;4.20;;;;;;;4.33;100.00;95837.78;5049057;28;20065;-59
2022/02/02 01:42:57;;;;;;;4.70;4.30;;;;;;;4.40;100.00;95835.50;5053703;28;20068;-59
2022/02/02 01:45:32;;;;;;;4.18;3.88;;;;;;;4.51;100.00;95836.31;5061758;28;20060;-60
2022/02/02 01:48:18;;;;;;;4.03;3.72;;;;;;;4.41;100.00;95822.34;5066359;28;20071;-57
2022/02/02 01:51:01;;;;;;;4.35;3.95;;;;;;;4.35;100.00;95793.28;5063980;28;20098;-60
2022/02/02 01:53:41;;;;;;;4.55;4.15;;;;;;;4.42;100.00;95817.94;5046001;28;20068;-60
2022/02/02 01:56:13;;;;;;;3.72;3.53;;;;;;;4.36;100.00;95811.44;5040175;28;21525;-60
2022/02/02 01:59:00;;;;;;;4.10;3.80;;;;;;;4.55;100.00;95812.59;5045973;28;20072;-61
2022/02/02 02:01:29;;;;;;;3.80;3.50;;;;;;;4.53;100.00;95816.13;5046768;28;20067;-57
2022/02/02 02:03:58;;;;;;;4.40;4.10;;;;;;;4.39;100.00;95834.69;5047203;28;20064;-60
2022/02/02 02:06:27;;;;;;;4.25;3.97;;;;;;;4.43;100.00;95833.47;5047349;28;20482;-60
2022/02/02 02:08:55;;;;;;;3.80;3.55;;;;;;;4.48;100.00;95836.56;5045349;28;20084;-60
2022/02/02 02:11:25;;;;;;;3.72;3.53;;;;;;;4.44;100.00;95837.78;5045901;28;20164;-59
2022/02/02 02:16:59;;;;;;;3.60;3.40;;;;;;;4.55;100.00;95812.59;5043570;27;20623;-57
2022/02/02 02:19:27;;;;;;;3.80;3.60;;;;;;;4.45;100.00;95834.19;5048367;28;20076;-56
2022/02/02 02:21:55;;;;;;;3.60;3.40;;;;;;;4.37;100.00;95826.16;5037260;28;20076;-55
2022/02/02 02:24:25;;;;;;;4.05;3.75;;;;;;;4.51;100.00;95825.06;5033543;28;20079;-59
2022/02/02 02:26:54;;;;;;;3.83;3.53;;;;;;;4.37;100.00;95804.44;5038648;28;20077;-56
2022/02/02 02:29:46;;;;;;;3.55;3.35;;;;;;;4.48;100.00;95809.63;5041499;28;20088;-56
2022/02/02 02:32:30;;;;;;;3.58;3.38;;;;;;;4.36;100.00;95823.66;5039280;28;20591;-59
2022/02/02 02:35:19;;;;;;;4.00;3.60;;;;;;;4.47;100.00;95823.63;5040509;28;20068;-59
2022/02/02 02:38:13;;;;;;;3.75;3.55;;;;;;;4.41;100.00;95835.41;5043978;28;20092;-56
2022/02/02 02:57:23;;;;;;;3.63;3.33;;;;;;;4.55;100.00;95807.38;5045664;28;20068;-60
2022/02/02 03:00:17;;;;;;;3.90;3.70;;;;;;;4.54;100.00;95827.38;5038067;28;20093;-57
2022/02/02 03:30:56;;;;;;;4.30;3.90;;;;;;;4.99;100.00;95820.25;5054514;28;20556;-58
2022/02/02 03:50:37;;;;;;;3.90;3.60;;;;;;;5.10;100.00;95836.81;5075018;28;21509;-56
2022/02/02 03:56:14;;;;;;;4.80;3.90;;;;;;;5.17;100.00;95857.09;5062717;28;19952;-57
2022/02/02 03:58:47;;;;;;;5.43;4.05;;;;;;;5.08;100.00;95850.00;5052457;28;20068;-57
2022/02/02 04:01:24;;;;;;;4.10;3.70;;;;;;;5.22;100.00;95859.31;5064113;28;20072;-58
2022/02/02 04:04:10;;;;;;;5.10;4.60;;;;;;;5.40;100.00;95864.81;5054796;28;20175;-59
2022/02/02 04:06:55;;;;;;;4.32;4.03;;;;;;;5.31;100.00;95871.63;5062186;28;20075;-59
2022/02/02 04:09:25;;;;;;;4.50;4.13;;;;;;;5.21;100.00;95866.34;5052146;28;20459;-57
2022/02/02 04:12:03;;;;;;;6.63;4.03;;;;;;;5.31;100.00;95871.63;5068555;28;20096;-55
2022/02/02 04:54:08;;;;;;;5.80;4.00;;;;;;;5.65;100.00;95863.59;5047535;28;20088;-58
2022/02/02 04:57:02;;;;;;;4.38;3.50;;;;;;;5.46;100.00;95880.81;5029558;28;20536;-58
2022/02/02 04:59:36;;;;;;;8.05;3.83;;;;;;;5.42;100.00;95853.25;5023926;28;20124;-59
2022/02/02 05:02:59;;;;;;;8.00;3.95;;;;;;;5.59;100.00;95878.00;5030648;28;20385;-56
2022/02/02 05:05:47;;;;;;;10.82;4.75;;;;;;;5.84;100.00;95874.16;5039437;28;20721;-60
2022/02/02 05:08:22;;;;;;;8.90;4.13;;;;;;;5.59;100.00;95879.81;5047723;28;21461;-59
2022/02/02 05:11:06;;;;;;;5.85;3.30;;;;;;;5.57;100.00;95871.25;5030461;28;20519;-56
2022/02/02 05:16:37;;;;;;;7.40;3.95;;;;;;;5.58;100.00;95883.38;5046856;28;20064;-59
2022/02/02 05:42:02;;;;;;;6.45;3.90;;;;;;;5.75;100.00;95919.41;5025218;28;20065;-57
2022/02/02 05:44:41;;;;;;;9.68;4.00;;;;;;;5.90;100.00;95922.53;5013808;28;21360;-56
2022/02/02 05:50:19;;;;;;;7.88;4.18;;;;;;;5.77;100.00;95917.50;5045374;28;20563;-59
2022/02/02 05:52:48;;;;;;;7.88;4.20;;;;;;;5.81;100.00;95924.13;5040912;28;20072;-57
2022/02/02 05:55:16;;;;;;;9.82;3.85;;;;;;;5.83;100.00;95916.97;5054114;28;20068;-57
2022/02/02 05:57:47;;;;;;;3.95;3.65;;;;;;;5.65;100.00;95934.22;5043376;28;20479;-58
2022/02/02 06:00:16;;;;;;;11.07;3.60;;;;;;;5.51;100.00;95929.31;5035835;28;20061;-59
2022/02/02 06:02:47;;;;;;;8.43;3.92;;;;;;;5.43;100.00;95941.19;5051068;28;20081;-59
2022/02/02 06:05:16;;;;;;;9.43;4.25;;;;;;;5.18;100.00;95972.91;5052050;28;20136;-57
2022/02/02 06:07:48;;;;;;;7.78;3.50;;;;;;;5.04;100.00;95975.81;5036665;28;20096;-57
2022/02/02 06:10:18;;;;;;;4.22;3.42;;;;;;;5.12;100.00;95979.44;5040917;28;20084;-58
2022/02/02 06:12:47;;;;;;;11.73;4.55;;;;;;;5.05;100.00;95990.53;5056755;28;20071;-59
2022/02/02 06:15:17;;;;;;;5.50;3.85;;;;;;;4.79;100.00;96005.66;5037761;28;20084;-59
2022/02/02 06:17:50;;;;;;;4.10;3.70;;;;;;;4.50;100.00;95977.41;5017112;28;20049;-57
2022/02/02 06:20:19;;;;;;;5.80;3.83;;;;;;;4.35;100.00;95947.28;5023437;28;20104;-55
2022/02/02 06:22:53;;;;;;;7.43;3.90;;;;;;;4.40;100.00;95960.78;5025523;28;20075;-59
2022/02/02 06:25:28;;;;;;;4.05;3.60;;;;;;;4.31;100.00;95978.00;5023875;28;20056;-59
2022/02/02 06:28:01;;;;;;;3.75;3.38;;;;;;;4.37;100.00;95980.16;5030877;28;20658;-57
2022/02/02 06:30:32;;;;;;;6.47;3.80;;;;;;;4.59;100.00;95988.94;5040612;28;20087;-59
2022/02/02 06:33:07;;;;;;;4.55;3.65;;;;;;;4.56;100.00;95992.59;5042323;28;20179;-58
2022/02/02 06:35:36;;;;;;;6.40;3.92;;;;;;;4.47;100.00;95985.47;5045083;28;20073;-58
2022/02/02 06:38:06;;;;;;;3.58;3.20;;;;;;;4.49;100.00;95989.63;5050355;28;20069;-61
2022/02/02 06:40:37;;;;;;;3.83;3.53;;;;;;;4.49;100.00;95989.63;5054784;28;20549;-61
2022/02/02 06:43:06;;;;;;;6.57;3.97;;;;;;;4.64;100.00;95999.84;5048888;28;20106;-58
2022/02/02 06:45:35;;;;;;;5.93;3.78;;;;;;;4.71;100.00;96006.25;5047558;28;20060;-61
2022/02/02 06:48:04;;;;;;;4.45;4.03;;;;;;;4.66;100.00;95997.94;5045971;28;20137;-60
2022/02/02 06:50:39;;;;;;;5.63;3.63;;;;;;;4.80;100.00;96015.97;5046115;28;20068;-60
2022/02/02 06:53:20;;;;;;;8.10;4.47;;;;;;;4.87;100.00;96009.31;5036933;28;20486;-60
2022/02/02 06:56:05;;;;;;;3.85;3.50;;;;;;;4.80;100.00;96021.19;5048497;28;20065;-61
2022/02/02 06:58:45;;;;;;;5.57;3.63;;;;;;;-146.19;100.00;58918.88;5039794;28;20057;-60
2022/02/02 07:01:31;;;;;;;7.00;4.00;;;;;;;-146.19;100.00;58918.88;5046127;28;20533;-60
2022/02/02 07:04:13;;;;;;;6.15;3.50;;;;;;;-146.19;100.00;58918.88;5043895;28;20076;-60
2022/02/02 07:06:52;;;;;;;7.28;4.30;;;;;;;-146.19;100.00;58918.88;5036236;28;20060;-60
2022/02/02 07:09:31;;;;;;;5.75;3.40;;;;;;;-146.19;100.00;58918.88;5036534;28;20065;-60
2022/02/02 07:12:11;;;;;;;10.95;4.30;;;;;;;-146.19;100.00;58918.88;5054906;28;20064;-59
2022/02/02 07:14:56;;;;;;;7.30;4.07;;;;;;;-146.19;100.00;58918.88;5040384;28;20060;-60
2022/02/02 07:17:40;;;;;;;9.50;4.22;;;;;;;-146.19;100.00;58918.88;5036206;28;20084;-60
2022/02/02 07:20:16;;;;;;;11.38;3.90;;;;;;;-146.19;100.00;58918.88;5046160;28;21196;-61
2022/02/02 07:23:16;;;;;;;9.18;4.38;;;;;;;-146.19;100.00;58918.88;5031566;28;20064;-59
2022/02/02 07:26:07;;;;;;;11.55;4.10;;;;;;;-146.19;100.00;58918.88;5021828;28;20053;-60
2022/02/02 07:28:42;;;;;;;11.25;3.88;;;;;;;-146.19;100.00;58918.88;5013622;28;20081;-60
2022/02/02 07:31:24;;;;;;;14.00;4.60;;;;;;;-146.19;100.00;58918.88;5019313;28;20073;-57
2022/02/02 07:33:59;;;;;;;9.13;3.72;;;;;;;-146.19;100.00;58918.88;5016400;28;20074;-60
2022/02/02 07:36:35;;;;;;;17.38;5.20;;;;;;;-146.19;100.00;58918.88;5032982;28;20092;-61
2022/02/02 07:39:07;;;;;;;11.43;4.55;;;;;;;-146.19;100.00;58918.88;5041108;28;20071;-59
2022/02/02 07:41:38;;;;;;;11.63;4.35;;;;;;;-146.19;100.00;58918.88;5050598;28;20556;-59
2022/02/02 07:44:13;;;;;;;10.70;4.53;;;;;;;-146.19;100.00;58918.88;5038273;28;20492;-59
2022/02/02 07:46:45;;;;;;;10.55;4.22;;;;;;;-146.19;100.00;58918.88;5049100;28;20064;-60
2022/02/02 07:49:16;;;;;;;7.10;4.32;;;;;;;-146.19;100.00;58918.88;5044350;28;20063;-60
2022/02/02 07:51:49;;;;;;;8.38;3.85;;;;;;;-146.19;100.00;58918.88;5038675;28;20067;-59
2022/02/02 07:54:24;;;;;;;6.45;3.65;;;;;;;-146.19;100.00;58918.88;5044025;28;20072;-60
2022/02/02 07:57:10;;;;;;;9.65;4.50;;;;;;;-146.19;100.00;58918.88;5036676;28;20060;-60
2022/02/02 07:59:48;;;;;;;5.80;3.47;;;;;;;-146.19;100.00;58918.88;5040325;28;20067;-60
2022/02/02 08:02:21;;;;;;;8.88;3.95;;;;;;;-146.19;100.00;58918.88;5046765;28;20077;-60
2022/02/02 08:04:54;;;;;;;8.63;4.07;;;;;;;-146.19;100.00;58918.88;5047598;28;20064;-58
2022/02/02 08:07:27;;;;;;;9.30;4.35;;;;;;;-146.19;100.00;58918.88;5057627;28;20079;-61
2022/02/02 08:10:06;;;;;;;13.05;4.32;;;;;;;-146.19;100.00;58918.88;5046024;28;20068;-59
2022/02/02 08:12:44;;;;;;;12.90;4.60;;;;;;;-146.19;100.00;58918.88;5042400;28;20080;-60
2022/02/02 08:15:14;;;;;;;10.23;3.92;;;;;;;5.36;100.00;96088.25;5048645;28;20059;-58
2022/02/02 08:17:44;;;;;;;11.48;5.00;;;;;;;5.30;100.00;96096.56;5053669;28;20127;-58
2022/02/02 08:20:13;;;;;;;7.63;3.83;;;;;;;5.35;100.00;96112.75;5047290;28;20111;-60
2022/02/02 08:22:41;;;;;;;4.72;3.60;;;;;;;5.54;100.00;96118.19;5033301;28;20069;-59
2022/02/02 08:25:16;;;;;;;11.05;4.20;;;;;;;5.53;100.00;96119.13;5043424;28;20063;-59
2022/02/02 08:27:46;;;;;;;8.32;4.05;;;;;;;5.68;100.00;96117.06;5047662;28;20091;-59
2022/02/02 08:30:16;;;;;;;8.38;3.97;;;;;;;5.65;100.00;96112.91;5043985;28;20076;-59
2022/02/02 08:32:50;;;;;;;8.15;4.15;;;;;;;5.73;100.00;96130.59;5058400;28;20065;-57
2022/02/02 08:35:21;;;;;;;11.77;4.50;;;;;;;5.90;100.00;96129.25;5053963;28;20071;-59
2022/02/02 08:37:56;;;;;;;12.73;4.40;;;;;;;5.94;100.00;96131.53;5038423;28;20049;-60
2022/02/02 08:40:31;;;;;;;13.07;4.00;;;;;;;5.94;100.00;96128.06;5045660;28;20068;-59
2022/02/02 08:43:06;;;;;;;7.65;3.97;;;;;;;6.02;100.00;96137.91;5048302;28;20466;-57
2022/02/02 08:45:37;;;;;;;17.25;4.38;;;;;;;6.03;100.00;96129.13;5052751;28;20063;-59
2022/02/02 08:48:08;;;;;;;11.18;3.63;;;;;;;6.04;100.00;96146.50;5047704;28;20080;-58
2022/02/02 08:50:44;;;;;;;12.35;4.68;;;;;;;6.08;100.00;96146.09;5048901;28;20077;-57
2022/02/02 08:53:30;;;;;;;10.35;4.15;;;;;;;6.08;100.00;96147.91;5063340;28;20068;-60
2022/02/02 08:58:45;;;;;;;9.98;4.53;;;;;;;5.95;100.00;96114.03;5037911;28;20083;-60
2022/02/02 09:01:20;;;;;;;;;;;;;;;6.03;100.00;96136.97;5046530;28;20068;-59
2022/02/02 09:06:34;;;;;;;10.52;3.85;;;;;;;6.09;100.00;96149.56;5041542;28;20060;-59
2022/02/02 09:09:11;;;;;;;4.72;3.70;;;;;;;6.02;100.00;96146.63;5044893;28;20061;-59
2022/02/02 09:20:08;;;;;;;13.70;4.82;;;;;;;6.39;100.00;96168.00;5038206;28;20064;-59
2022/02/02 09:25:34;;;;;;;15.02;4.50;;;;;;;6.45;100.00;96163.22;5032867;28;20061;-56
2022/02/02 09:33:55;;;;;;;13.30;4.50;;;;;;;7.02;100.00;96175.88;5009449;28;20082;-60
2022/02/02 09:36:27;;;;;;;16.08;4.28;;;;;;;7.13;100.00;96169.72;5010036;28;20341;-61
2022/02/02 09:38:58;;;;;;;12.60;4.65;;;;;;;6.72;100.00;96173.22;5028595;28;20104;-62
2022/02/02 09:44:19;;;;;;;14.18;4.47;;;;;;;6.72;100.00;96183.69;5041185;28;20536;-61
2022/02/02 09:46:56;;;;;;;8.82;4.13;;;;;;;6.80;100.00;96183.88;5049346;28;20068;-61
2022/02/02 09:49:30;;;;;;;12.77;4.65;;;;;;;6.64;100.00;96203.50;5050326;28;20071;-61
2022/02/02 09:52:03;;;;;;;14.90;4.13;;;;;;;6.76;100.00;96206.06;5044179;28;20071;-61
2022/02/02 09:54:38;;;;;;;11.18;4.30;;;;;;;6.80;100.00;96212.69;5037660;28;20071;-62
2022/02/02 10:00:22;;;;;;;12.90;4.82;;;;;;;6.93;100.00;96202.03;5044059;28;20065;-60
2022/02/02 10:03:22;;;;;;;11.18;4.20;;;;;;;6.80;100.00;96213.53;5052222;28;20147;-60
2022/02/02 10:06:01;;;;;;;12.90;4.50;;;;;;;6.89;100.00;96223.25;5051784;28;20075;-59
2022/02/02 10:08:52;;;;;;;11.27;3.90;;;;;;;6.87;100.00;96214.69;5045904;28;20762;-61
2022/02/02 10:12:03;;;;;;;7.63;4.03;;;;;;;6.72;100.00;96209.91;5038147;28;20089;-59
2022/02/02 10:14:39;;;;;;;10.35;4.28;;;;;;;6.69;100.00;96197.88;5041664;28;20742;-60
2022/02/02 10:17:12;;;;;;;10.50;4.60;;;;;;;6.64;100.00;96197.41;5055748;28;20491;-59
2022/02/02 10:19:40;;;;;;;21.10;4.78;;;;;;;6.74;100.00;96215.81;5030110;28;20551;-60
2022/02/02 10:22:27;;;;;;;8.05;4.03;;;;;;;6.81;100.00;96209.13;5036082;28;20107;-60
2022/02/02 10:24:59;;;;;;;7.78;4.10;;;;;;;6.82;100.00;96216.88;5041709;28;20114;-61
2022/02/02 10:27:32;;;;;;;10.13;4.03;;;;;;;6.86;100.00;96212.19;5040833;28;20064;-60
2022/02/02 10:30:19;;;;;;;12.88;4.20;;;;;;;6.73;100.00;96222.03;5055789;28;20060;-59
2022/02/02 10:32:49;;;;;;;;;;;;;;;6.87;100.00;96222.53;5038626;28;20081;-59
2022/02/02 10:35:37;;;;;;;14.57;4.40;;;;;;;7.07;100.00;96241.03;5051664;28;20403;-59
2022/02/02 10:38:21;;;;;;;8.57;3.95;;;;;;;6.72;100.00;96246.59;5052685;28;20530;-59
2022/02/02 10:40:53;;;;;;;7.43;3.80;;;;;;;5.77;100.00;96270.69;5047147;28;20534;-63
2022/02/02 10:43:25;;;;;;;2.50;2.40;;;;;;;4.34;100.00;96280.56;5041853;28;20544;-63
2022/02/02 10:45:54;;;;;;;3.70;3.40;;;;;;;7.43;100.00;96244.94;5043925;28;20085;-62
2022/02/02 10:48:33;;;;;;;2.80;2.70;;;;;;;6.29;100.00;96256.13;5050864;28;20064;-62
2022/02/02 10:51:08;;;;;;;3.00;2.90;;;;;;;4.28;100.00;96262.75;5044457;28;20643;-61
2022/02/02 10:53:48;;;;;;;2.80;2.70;;;;;;;4.52;100.00;96255.72;5047208;28;20075;-60
2022/02/02 10:56:30;;;;;;;3.08;2.97;;;;;;;4.02;100.00;96262.81;5038899;28;21959;-60
2022/02/02 10:59:22;;;;;;;3.13;3.03;;;;;;;4.15;100.00;96260.16;5043006;28;21431;-60
2022/02/02 11:07:22;;;;;;;7.40;4.32;;;;;;;4.70;100.00;96239.66;5036084;28;20638;-59
2022/02/02 11:09:51;;;;;;;12.02;4.57;;;;;;;4.96;100.00;96256.84;5043322;28;20484;-60
2022/02/02 11:12:27;;;;;;;8.52;4.10;;;;;;;5.17;100.00;96261.38;5041176;28;20067;-59
2022/02/02 11:15:05;;;;;;;7.47;4.22;;;;;;;5.52;100.00;96263.91;5032701;28;20096;-60
2022/02/02 11:17:44;;;;;;;10.85;4.68;;;;;;;5.53;100.00;96251.66;5049372;28;20593;-60
2022/02/02 11:20:16;;;;;;;7.15;4.05;;;;;;;5.70;100.00;96252.00;5038906;28;20076;-54
2022/02/02 11:22:49;;;;;;;11.85;4.93;;;;;;;5.78;100.00;96251.44;5050387;28;20068;-60
2022/02/02 11:25:33;;;;;;;13.63;5.45;;;;;;;5.75;100.00;96243.81;5042233;28;20063;-59
2022/02/02 11:28:07;;;;;;;7.80;3.67;;;;;;;5.76;100.00;96252.50;5040276;28;20072;-61
2022/02/02 11:30:41;;;;;;;10.00;3.72;;;;;;;5.70;100.00;96248.56;5050178;28;20075;-60
2022/02/02 11:33:29;;;;;;;10.35;4.80;;;;;;;5.75;100.00;96256.03;5048833;28;20057;-58
2022/02/02 11:36:18;;;;;;;13.35;4.43;;;;;;;5.74;100.00;96255.22;5050763;28;20080;-57
2022/02/02 11:38:47;;;;;;;9.75;4.32;;;;;;;5.81;100.00;96263.44;5042032;28;20079;-61
2022/02/02 11:41:23;;;;;;;9.07;3.50;;;;;;;5.89;100.00;96271.53;5046336;28;20076;-59
2022/02/02 11:44:15;;;;;;;8.00;4.05;;;;;;;6.11;100.00;96265.44;5052929;28;20044;-59
2022/02/02 11:46:47;;;;;;;13.25;5.47;;;;;;;6.22;100.00;96254.94;5061038;28;20083;-59
2022/02/02 11:49:18;;;;;;;8.60;4.38;;;;;;;6.36;100.00;96257.28;5039924;28;20068;-58
2022/02/02 11:51:51;;;;;;;11.15;4.57;;;;;;;6.35;100.00;96249.56;5043414;28;20068;-58
2022/02/02 11:54:21;;;;;;;7.35;4.15;;;;;;;6.29;100.00;96248.25;5059509;28;20721;-61
2022/02/02 11:57:17;;;;;;;19.07;4.23;;;;;;;6.27;100.00;96262.44;5048981;28;20084;-57
2022/02/02 12:00:14;;;;;;;9.30;4.30;;;;;;;6.31;100.00;96266.47;5044616;28;20501;-61
2022/02/02 12:05:55;;;;;;;7.13;3.90;;;;;;;6.15;100.00;96262.47;5045835;28;20089;-59
2022/02/02 12:08:47;;;;;;;8.57;4.53;;;;;;;6.11;100.00;96261.03;5041460;28;20446;-59
2022/02/02 12:11:47;;;;;;;8.82;3.90;;;;;;;6.04;100.00;96272.13;5049539;28;20585;-60
2022/02/02 12:45:44;;;;;;;8.13;4.05;;;;;;;5.10;100.00;96300.22;5039337;28;20088;-60
2022/02/02 12:48:07;;;;;;;4.70;3.80;;;;;;;5.36;100.00;96320.94;5027554;28;20076;-55
2022/02/02 12:54:08;;;;;;;7.13;3.97;;;;;;;5.62;100.00;96314.56;5035808;28;21280;-60
2022/02/02 12:56:38;;;;;;;8.80;3.90;;;;;;;5.65;100.00;96310.91;5039754;28;21481;-63
2022/02/02 12:59:35;;;;;;;12.88;4.03;;;;;;;5.61;100.00;96332.97;5022991;28;20289;-60
2022/02/02 13:02:07;;;;;;;7.60;3.90;;;;;;;5.75;100.00;96330.16;5019363;28;20554;-63
2022/02/02 13:04:37;;;;;;;9.45;3.90;;;;;;;6.04;100.00;96330.53;5022332;28;20150;-63
2022/02/02 13:07:10;;;;;;;7.75;4.07;;;;;;;6.15;100.00;96329.69;5025756;28;20753;-60
2022/02/02 13:09:39;;;;;;;10.93;4.53;;;;;;;6.25;100.00;96328.03;5022493;28;20068;-59
2022/02/02 13:12:24;;;;;;;11.57;4.10;;;;;;;6.15;100.00;96330.53;5017736;28;20077;-60
2022/02/02 13:17:59;;;;;;;9.20;4.03;;;;;;;5.96;100.00;96335.56;5012035;28;20096;-67
2022/02/02 13:20:44;;;;;;;8.75;3.58;;;;;;;5.89;100.00;96340.41;5021079;28;20077;-62
2022/02/02 13:23:19;;;;;;;11.93;3.70;;;;;;;5.86;100.00;96352.88;5021496;28;21540;-61
2022/02/02 13:25:53;;;;;;;9.85;4.05;;;;;;;5.88;100.00;96354.44;5018494;28;20589;-61
2022/02/02 13:28:48;;;;;;;9.45;4.20;;;;;;;5.91;100.00;96367.25;5028548;28;20064;-59
2022/02/02 13:31:34;;;;;;;6.28;3.67;;;;;;;6.03;100.00;96375.16;5020108;28;20481;-61
2022/02/02 13:34:04;;;;;;;8.73;4.10;;;;;;;6.24;100.00;96368.25;5040818;28;20068;-66
2022/02/02 13:36:49;;;;;;;7.70;3.47;;;;;;;6.20;100.00;96366.00;5039298;28;20069;-65
2022/02/02 13:51:25;;;;;;;12.05;4.25;;;;;;;6.46;100.00;96390.97;5034640;28;20062;-60
2022/02/02 13:54:11;;;;;;;9.65;3.95;;;;;;;6.72;100.00;96394.16;5024161;28;20157;-60
2022/02/02 14:09:01;;;;;;;13.52;4.75;;;;;;;6.48;100.00;96399.53;5040926;28;20483;-60
2022/02/02 14:11:39;;;;;;;9.70;4.18;;;;;;;6.54;100.00;96411.34;5022623;28;20539;-62
2022/02/02 14:33:53;;;;;;;7.55;3.65;;;;;;;6.82;100.00;96431.78;4974874;28;20089;-61
2022/02/02 14:36:26;;;;;;;5.37;3.40;;;;;;;6.82;100.00;96441.44;4968952;28;20062;-60
2022/02/02 14:39:01;;;;;;;7.82;3.40;;;;;;;6.63;100.00;96457.75;5010160;28;20073;-57
2022/02/02 14:41:36;;;;;;;5.95;3.20;;;;;;;6.68;100.00;96497.56;5055316;28;20447;-59
2022/02/02 14:44:11;;;;;;;3.17;2.80;;;;;;;4.83;100.00;96546.06;5045268;28;21479;-57
2022/02/02 14:46:44;;;;;;;2.60;2.50;;;;;;;2.78;100.00;96543.91;5041458;28;20102;-63
2022/02/02 14:49:17;;;;;;;2.80;2.70;;;;;;;2.22;100.00;96590.66;5047305;28;20061;-56
2022/02/02 14:51:55;;;;;;;3.20;3.10;;;;;;;2.17;100.00;96548.50;5056757;28;20063;-62
2022/02/02 14:54:45;;;;;;;3.00;2.90;;;;;;;2.61;100.00;96493.75;5045990;28;20068;-62
2022/02/02 15:28:50;;;;;;;3.15;3.05;;;;;;;3.78;100.00;96604.44;5038415;28;20072;-60
2022/02/02 15:31:19;;;;;;;3.88;3.67;;;;;;;3.88;100.00;96594.25;5045252;28;20062;-60
2022/02/02 15:33:51;;;;;;;3.40;3.20;;;;;;;3.90;100.00;96594.16;5042306;28;20061;-59
2022/02/02 15:39:07;;;;;;;3.60;3.40;;;;;;;3.78;100.00;96594.00;5012742;28;20077;-58
2022/02/02 15:41:43;;;;;;;3.60;3.40;;;;;;;3.81;100.00;96595.59;5025242;28;20081;-60
2022/02/02 15:55:52;;;;;;;3.20;3.10;;;;;;;3.91;100.00;96604.47;5017230;28;20069;-58
2022/02/02 15:58:16;;;;;;;3.40;3.25;;;;;;;3.87;100.00;96613.44;5018644;28;20096;-60
2022/02/02 16:03:36;;;;;;;3.40;3.20;;;;;;;3.69;100.00;96630.28;5028459;28;20061;-59
2022/02/02 16:06:11;;;;;;;3.45;3.25;;;;;;;3.70;100.00;96637.19;5018498;28;20065;-55
2022/02/02 16:08:42;;;;;;;3.22;3.13;;;;;;;3.72;100.00;96641.38;5019557;28;20516;-59
2022/02/02 16:11:18;;;;;;;3.10;3.00;;;;;;;3.79;100.00;96641.81;5025290;28;20085;-60
2022/02/02 16:13:49;;;;;;;3.42;3.22;;;;;;;3.88;100.00;96638.59;5028466;28;20566;-57
2022/02/02 16:16:42;;;;;;;3.08;2.97;;;;;;;3.93;100.00;96633.09;5028556;28;20069;-53
2022/02/02 16:19:19;;;;;;;3.20;3.10;;;;;;;4.03;100.00;96624.56;5031427;28;20068;-55
2022/02/02 16:36:05;;;;;;;3.70;3.50;;;;;;;4.23;100.00;96631.09;5038176;28;20065;-56
2022/02/02 16:38:39;;;;;;;3.30;3.20;;;;;;;4.15;100.00;96629.91;5039347;28;20072;-62
2022/02/02 16:42:56;;;;;;;3.08;2.97;;;;;;;4.20;100.00;96628.69;5040228;28;20404;-55
2022/02/02 16:43:57;;;;;;;3.10;3.00;;;;;;;4.18;100.00;96625.31;5037179;28;20083;-58
2022/02/02 16:46:26;;;;;;;3.20;3.10;;;;;;;3.99;100.00;96645.72;5032862;28;20072;-59
2022/02/02 16:48:54;;;;;;;3.10;3.00;;;;;;;4.13;100.00;96647.44;5040495;28;20646;-53
2022/02/02 16:51:23;;;;;;;3.10;3.00;;;;;;;4.25;100.00;96657.91;5038666;28;20064;-58
2022/02/02 16:53:54;;;;;;;7.47;4.57;;;;;;;4.13;100.00;96669.16;5037595;28;20083;-56
2022/02/02 16:56:31;;;;;;;3.00;2.90;;;;;;;4.16;100.00;96678.56;5035534;28;20077;-57
2022/02/02 17:29:57;;;;;;;3.53;3.33;;;;;;;3.42;100.00;96705.88;5008383;28;20539;-57
2022/02/02 17:32:35;;;;;;;3.20;3.10;;;;;;;3.49;100.00;96697.56;5039221;28;20041;-60
2022/02/02 17:35:22;;;;;;;3.55;3.35;;;;;;;3.56;100.00;96701.47;5035123;28;21590;-59
2022/02/02 17:37:59;;;;;;;3.00;2.90;;;;;;;3.80;100.00;96693.03;5025742;28;20697;-60
2022/02/02 17:40:44;;;;;;;3.45;3.25;;;;;;;3.71;100.00;96698.81;5021411;28;20073;-61
2022/02/02 17:46:03;;;;;;;3.22;3.13;;;;;;;3.78;100.00;96694.91;5001562;28;20077;-59
2022/02/02 18:19:48;;;;;;;3.17;3.08;;;;;;;3.78;100.00;96800.06;5044474;28;20069;-63
2022/02/02 18:22:19;;;;;;;3.15;3.05;;;;;;;3.80;100.00;96807.81;5052764;28;20072;-62
2022/02/02 18:24:59;;;;;;;3.38;3.20;;;;;;;3.73;100.00;96804.75;5046748;28;20115;-58
2022/02/02 18:27:37;;;;;;;3.20;3.10;;;;;;;3.74;100.00;96805.56;5048580;28;20056;-60
2022/02/02 18:30:19;;;;;;;3.65;3.45;;;;;;;3.59;100.00;96811.72;5046139;28;20084;-63
2022/02/02 18:33:00;;;;;;;3.20;3.10;;;;;;;3.57;100.00;96817.03;5024639;28;20093;-61
2022/02/02 18:35:34;;;;;;;3.10;3.00;;;;;;;3.45;100.00;96817.78;5022839;28;20065;-63
2022/02/02 18:46:32;;;;;;;2.97;2.88;;;;;;;-146.19;100.00;58918.88;5021518;28;20076;-59
2022/02/02 18:49:27;;;;;;;3.00;2.90;;;;;;;-146.19;100.00;58918.88;5036156;28;20071;-59
2022/02/02 18:54:59;;;;;;;2.90;2.80;;;;;;;-146.19;100.00;58918.88;5016671;28;20606;-61
2022/02/02 18:57:44;;;;;;;3.70;3.50;;;;;;;3.51;100.00;96833.91;5018281;28;20445;-62